sensor_id;sensor_type;location;lat;lon;timestamp;P1;durP1;ratioP1;P2;durP2;ratioP2
10244;SDS011;5167;52.164;10.530;2023-07-29T00:00:51;2.85;;;2.63;;
10244;SDS011;5167;52.164;10.530;2023-07-29T00:03:23;3.42;;;2.72;;
10244;SDS011;5167;52.164;10.530;2023-07-29T00:06:09;1.80;;;1.70;;
10244;SDS011;5167;52.164;10.530;2023-07-29T00:14:23;2.95;;;1.92;;
10244;SDS011;5167;52.164;10.530;2023-07-29T00:17:01;1.50;;;1.40;;
10244;SDS011;5167;52.164;10.530;2023-07-29T00:19:26;1.60;;;1.50;;
10244;SDS011;5167;52.164;10.530;2023-07-29T00:21:53;2.53;;;2.13;;
10244;SDS011;5167;52.164;10.530;2023-07-29T00:24:30;1.38;;;1.27;;
10244;SDS011;5167;52.164;10.530;2023-07-29T00:26:55;1.85;;;1.38;;
10244;SDS011;5167;52.164;10.530;2023-07-29T00:29:21;1.58;;;1.48;;
10244;SDS011;5167;52.164;10.530;2023-07-29T00:31:47;1.70;;;1.60;;
10244;SDS011;5167;52.164;10.530;2023-07-29T00:34:15;1.40;;;1.30;;
10244;SDS011;5167;52.164;10.530;2023-07-29T00:36:44;3.67;;;1.70;;
10244;SDS011;5167;52.164;10.530;2023-07-29T00:39:19;1.77;;;1.52;;
10244;SDS011;5167;52.164;10.530;2023-07-29T00:41:45;1.70;;;1.60;;
10244;SDS011;5167;52.164;10.530;2023-07-29T00:44:10;1.52;;;1.42;;
10244;SDS011;5167;52.164;10.530;2023-07-29T00:46:36;1.45;;;1.35;;
10244;SDS011;5167;52.164;10.530;2023-07-29T00:49:03;1.42;;;1.30;;
10244;SDS011;5167;52.164;10.530;2023-07-29T00:51:28;1.65;;;1.55;;
10244;SDS011;5167;52.164;10.530;2023-07-29T00:54:00;1.60;;;1.20;;
10244;SDS011;5167;52.164;10.530;2023-07-29T00:56:43;2.38;;;1.38;;
10244;SDS011;5167;52.164;10.530;2023-07-29T00:59:09;1.48;;;1.27;;
10244;SDS011;5167;52.164;10.530;2023-07-29T01:01:35;1.58;;;1.30;;
10244;SDS011;5167;52.164;10.530;2023-07-29T01:04:07;2.45;;;1.17;;
10244;SDS011;5167;52.164;10.530;2023-07-29T01:12:14;1.30;;;1.20;;
10244;SDS011;5167;52.164;10.530;2023-07-29T01:17:48;1.33;;;1.10;;
10244;SDS011;5167;52.164;10.530;2023-07-29T01:20:19;2.65;;;1.30;;
10244;SDS011;5167;52.164;10.530;2023-07-29T01:22:54;1.48;;;1.38;;
10244;SDS011;5167;52.164;10.530;2023-07-29T01:25:19;1.48;;;1.20;;
10244;SDS011;5167;52.164;10.530;2023-07-29T01:27:46;1.00;;;1.00;;
10244;SDS011;5167;52.164;10.530;2023-07-29T01:30:16;1.20;;;1.10;;
10244;SDS011;5167;52.164;10.530;2023-07-29T01:32:43;1.45;;;1.35;;
10244;SDS011;5167;52.164;10.530;2023-07-29T01:35:27;1.35;;;1.25;;
10244;SDS011;5167;52.164;10.530;2023-07-29T01:38:19;2.90;;;1.35;;
10244;SDS011;5167;52.164;10.530;2023-07-29T01:40:53;1.88;;;1.50;;
10244;SDS011;5167;52.164;10.530;2023-07-29T01:43:21;2.80;;;1.38;;
10244;SDS011;5167;52.164;10.530;2023-07-29T01:45:50;1.13;;;1.08;;
10244;SDS011;5167;52.164;10.530;2023-07-29T01:51:14;1.60;;;1.20;;
10244;SDS011;5167;52.164;10.530;2023-07-29T01:53:47;1.23;;;1.13;;
10244;SDS011;5167;52.164;10.530;2023-07-29T01:56:13;1.27;;;1.20;;
10244;SDS011;5167;52.164;10.530;2023-07-29T02:02:15;2.75;;;1.20;;
10244;SDS011;5167;52.164;10.530;2023-07-29T02:04:44;1.50;;;1.20;;
10244;SDS011;5167;52.164;10.530;2023-07-29T02:07:19;1.17;;;1.08;;
10244;SDS011;5167;52.164;10.530;2023-07-29T02:09:51;1.48;;;1.20;;
10244;SDS011;5167;52.164;10.530;2023-07-29T02:12:19;1.05;;;1.00;;
10244;SDS011;5167;52.164;10.530;2023-07-29T02:14:45;1.20;;;1.08;;
10244;SDS011;5167;52.164;10.530;2023-07-29T02:17:11;1.95;;;1.17;;
10244;SDS011;5167;52.164;10.530;2023-07-29T02:19:36;1.13;;;1.13;;
10244;SDS011;5167;52.164;10.530;2023-07-29T02:22:02;1.45;;;1.35;;
10244;SDS011;5167;52.164;10.530;2023-07-29T02:24:40;1.17;;;1.10;;
10244;SDS011;5167;52.164;10.530;2023-07-29T02:30:06;1.63;;;1.52;;
10244;SDS011;5167;52.164;10.530;2023-07-29T02:32:34;1.45;;;1.35;;
10244;SDS011;5167;52.164;10.530;2023-07-29T02:35:00;1.83;;;1.15;;
10244;SDS011;5167;52.164;10.530;2023-07-29T02:37:28;1.35;;;1.25;;
10244;SDS011;5167;52.164;10.530;2023-07-29T02:39:58;2.20;;;1.45;;
10244;SDS011;5167;52.164;10.530;2023-07-29T02:42:30;4.53;;;1.52;;
10244;SDS011;5167;52.164;10.530;2023-07-29T02:45:05;1.75;;;1.23;;
10244;SDS011;5167;52.164;10.530;2023-07-29T02:47:34;2.83;;;1.63;;
10244;SDS011;5167;52.164;10.530;2023-07-29T02:50:00;1.92;;;1.63;;
10244;SDS011;5167;52.164;10.530;2023-07-29T02:52:26;1.35;;;1.25;;
10244;SDS011;5167;52.164;10.530;2023-07-29T02:55:04;1.83;;;1.40;;
10244;SDS011;5167;52.164;10.530;2023-07-29T02:57:39;2.30;;;1.55;;
10244;SDS011;5167;52.164;10.530;2023-07-29T03:00:05;1.80;;;1.70;;
10244;SDS011;5167;52.164;10.530;2023-07-29T03:02:40;2.50;;;1.67;;
10244;SDS011;5167;52.164;10.530;2023-07-29T03:05:06;1.98;;;1.80;;
10244;SDS011;5167;52.164;10.530;2023-07-29T03:07:32;1.70;;;1.60;;
10244;SDS011;5167;52.164;10.530;2023-07-29T03:09:57;3.00;;;1.85;;
10244;SDS011;5167;52.164;10.530;2023-07-29T03:12:25;3.03;;;2.00;;
10244;SDS011;5167;52.164;10.530;2023-07-29T03:14:51;1.88;;;1.50;;
10244;SDS011;5167;52.164;10.530;2023-07-29T03:17:21;1.83;;;1.27;;
10244;SDS011;5167;52.164;10.530;2023-07-29T03:19:46;1.50;;;1.40;;
10244;SDS011;5167;52.164;10.530;2023-07-29T03:22:12;1.63;;;1.45;;
10244;SDS011;5167;52.164;10.530;2023-07-29T03:24:38;1.35;;;1.25;;
10244;SDS011;5167;52.164;10.530;2023-07-29T03:27:04;1.70;;;1.40;;
10244;SDS011;5167;52.164;10.530;2023-07-29T03:29:33;2.45;;;1.30;;
10244;SDS011;5167;52.164;10.530;2023-07-29T03:32:07;3.47;;;1.52;;
10244;SDS011;5167;52.164;10.530;2023-07-29T03:34:33;2.72;;;1.40;;
10244;SDS011;5167;52.164;10.530;2023-07-29T03:37:08;1.50;;;1.40;;
10244;SDS011;5167;52.164;10.530;2023-07-29T03:39:34;1.75;;;1.65;;
10244;SDS011;5167;52.164;10.530;2023-07-29T03:41:59;1.75;;;1.50;;
10244;SDS011;5167;52.164;10.530;2023-07-29T03:44:25;2.08;;;1.65;;
10244;SDS011;5167;52.164;10.530;2023-07-29T03:46:50;2.00;;;1.80;;
10244;SDS011;5167;52.164;10.530;2023-07-29T03:49:16;1.48;;;1.38;;
10244;SDS011;5167;52.164;10.530;2023-07-29T03:51:41;2.25;;;1.30;;
10244;SDS011;5167;52.164;10.530;2023-07-29T03:54:07;1.60;;;1.50;;
10244;SDS011;5167;52.164;10.530;2023-07-29T03:56:32;1.60;;;1.50;;
10244;SDS011;5167;52.164;10.530;2023-07-29T03:59:03;1.83;;;1.60;;
10244;SDS011;5167;52.164;10.530;2023-07-29T04:01:30;3.78;;;1.40;;
10244;SDS011;5167;52.164;10.530;2023-07-29T04:03:55;1.92;;;1.52;;
10244;SDS011;5167;52.164;10.530;2023-07-29T04:06:21;1.27;;;1.27;;
10244;SDS011;5167;52.164;10.530;2023-07-29T04:08:47;4.28;;;1.55;;
10244;SDS011;5167;52.164;10.530;2023-07-29T04:11:14;4.15;;;1.85;;
10244;SDS011;5167;52.164;10.530;2023-07-29T04:13:39;2.70;;;1.52;;
10244;SDS011;5167;52.164;10.530;2023-07-29T04:16:05;1.67;;;1.58;;
10244;SDS011;5167;52.164;10.530;2023-07-29T04:18:32;1.75;;;1.50;;
10244;SDS011;5167;52.164;10.530;2023-07-29T04:20:57;1.65;;;1.55;;
10244;SDS011;5167;52.164;10.530;2023-07-29T04:23:23;1.70;;;1.60;;
10244;SDS011;5167;52.164;10.530;2023-07-29T04:25:48;1.40;;;1.30;;
10244;SDS011;5167;52.164;10.530;2023-07-29T04:28:14;2.28;;;1.60;;
10244;SDS011;5167;52.164;10.530;2023-07-29T04:30:40;6.10;;;1.67;;
10244;SDS011;5167;52.164;10.530;2023-07-29T04:33:06;2.33;;;1.55;;
10244;SDS011;5167;52.164;10.530;2023-07-29T04:35:31;1.67;;;1.55;;
10244;SDS011;5167;52.164;10.530;2023-07-29T04:37:57;4.32;;;1.27;;
10244;SDS011;5167;52.164;10.530;2023-07-29T04:40:22;1.65;;;1.10;;
10244;SDS011;5167;52.164;10.530;2023-07-29T04:42:48;4.53;;;1.30;;
10244;SDS011;5167;52.164;10.530;2023-07-29T04:45:14;1.40;;;1.30;;
10244;SDS011;5167;52.164;10.530;2023-07-29T04:47:41;1.45;;;1.35;;
10244;SDS011;5167;52.164;10.530;2023-07-29T04:50:06;1.63;;;1.52;;
10244;SDS011;5167;52.164;10.530;2023-07-29T04:52:33;1.92;;;1.60;;
10244;SDS011;5167;52.164;10.530;2023-07-29T04:54:58;1.50;;;1.40;;
10244;SDS011;5167;52.164;10.530;2023-07-29T04:57:24;2.55;;;1.30;;
10244;SDS011;5167;52.164;10.530;2023-07-29T04:59:49;1.67;;;1.48;;
10244;SDS011;5167;52.164;10.530;2023-07-29T05:02:14;1.65;;;1.55;;
10244;SDS011;5167;52.164;10.530;2023-07-29T05:04:40;1.33;;;1.23;;
10244;SDS011;5167;52.164;10.530;2023-07-29T05:07:06;2.83;;;1.50;;
10244;SDS011;5167;52.164;10.530;2023-07-29T05:09:31;2.55;;;1.55;;
10244;SDS011;5167;52.164;10.530;2023-07-29T05:11:57;1.77;;;1.55;;
10244;SDS011;5167;52.164;10.530;2023-07-29T05:14:22;1.30;;;1.20;;
10244;SDS011;5167;52.164;10.530;2023-07-29T05:16:48;1.33;;;1.23;;
10244;SDS011;5167;52.164;10.530;2023-07-29T05:19:14;2.03;;;1.35;;
10244;SDS011;5167;52.164;10.530;2023-07-29T05:21:39;1.25;;;1.25;;
10244;SDS011;5167;52.164;10.530;2023-07-29T05:24:05;1.30;;;1.30;;
10244;SDS011;5167;52.164;10.530;2023-07-29T05:26:31;4.85;;;1.80;;
10244;SDS011;5167;52.164;10.530;2023-07-29T05:28:57;1.60;;;1.50;;
10244;SDS011;5167;52.164;10.530;2023-07-29T05:31:23;1.80;;;1.70;;
10244;SDS011;5167;52.164;10.530;2023-07-29T05:33:48;1.60;;;1.50;;
10244;SDS011;5167;52.164;10.530;2023-07-29T05:36:14;1.60;;;1.50;;
10244;SDS011;5167;52.164;10.530;2023-07-29T05:38:40;1.60;;;1.50;;
10244;SDS011;5167;52.164;10.530;2023-07-29T05:41:06;1.65;;;1.55;;
10244;SDS011;5167;52.164;10.530;2023-07-29T05:43:31;1.63;;;1.52;;
10244;SDS011;5167;52.164;10.530;2023-07-29T05:45:57;2.22;;;1.63;;
10244;SDS011;5167;52.164;10.530;2023-07-29T05:48:22;1.58;;;1.48;;
10244;SDS011;5167;52.164;10.530;2023-07-29T05:50:48;1.42;;;1.33;;
10244;SDS011;5167;52.164;10.530;2023-07-29T05:53:14;1.27;;;1.20;;
10244;SDS011;5167;52.164;10.530;2023-07-29T05:55:39;1.63;;;1.52;;
10244;SDS011;5167;52.164;10.530;2023-07-29T05:58:05;2.03;;;1.40;;
10244;SDS011;5167;52.164;10.530;2023-07-29T06:00:30;2.65;;;1.50;;
10244;SDS011;5167;52.164;10.530;2023-07-29T06:02:56;2.05;;;1.55;;
10244;SDS011;5167;52.164;10.530;2023-07-29T06:05:22;3.60;;;2.00;;
10244;SDS011;5167;52.164;10.530;2023-07-29T06:07:47;2.15;;;1.92;;
10244;SDS011;5167;52.164;10.530;2023-07-29T06:10:14;1.52;;;1.42;;
10244;SDS011;5167;52.164;10.530;2023-07-29T06:12:44;2.53;;;1.80;;
10244;SDS011;5167;52.164;10.530;2023-07-29T06:15:10;7.55;;;1.90;;
10244;SDS011;5167;52.164;10.530;2023-07-29T06:17:36;3.78;;;1.67;;
10244;SDS011;5167;52.164;10.530;2023-07-29T06:20:03;2.38;;;2.17;;
10244;SDS011;5167;52.164;10.530;2023-07-29T06:22:29;2.53;;;2.00;;
10244;SDS011;5167;52.164;10.530;2023-07-29T06:24:54;2.20;;;2.00;;
10244;SDS011;5167;52.164;10.530;2023-07-29T06:27:19;3.72;;;1.90;;
10244;SDS011;5167;52.164;10.530;2023-07-29T06:29:45;2.47;;;1.92;;
10244;SDS011;5167;52.164;10.530;2023-07-29T06:32:10;4.68;;;1.85;;
10244;SDS011;5167;52.164;10.530;2023-07-29T06:34:36;3.95;;;1.83;;
10244;SDS011;5167;52.164;10.530;2023-07-29T06:37:01;3.17;;;2.03;;
10244;SDS011;5167;52.164;10.530;2023-07-29T06:39:27;2.85;;;2.25;;
10244;SDS011;5167;52.164;10.530;2023-07-29T06:41:52;1.90;;;1.80;;
10244;SDS011;5167;52.164;10.530;2023-07-29T06:44:18;2.72;;;1.73;;
10244;SDS011;5167;52.164;10.530;2023-07-29T06:46:43;3.85;;;1.73;;
10244;SDS011;5167;52.164;10.530;2023-07-29T06:49:09;5.60;;;1.80;;
10244;SDS011;5167;52.164;10.530;2023-07-29T06:51:35;2.53;;;1.73;;
10244;SDS011;5167;52.164;10.530;2023-07-29T06:54:01;1.33;;;1.30;;
10244;SDS011;5167;52.164;10.530;2023-07-29T06:56:27;1.52;;;1.42;;
10244;SDS011;5167;52.164;10.530;2023-07-29T06:58:52;4.40;;;1.58;;
10244;SDS011;5167;52.164;10.530;2023-07-29T07:01:18;2.30;;;1.65;;
10244;SDS011;5167;52.164;10.530;2023-07-29T07:03:43;1.85;;;1.67;;
10244;SDS011;5167;52.164;10.530;2023-07-29T07:06:09;3.95;;;2.20;;
10244;SDS011;5167;52.164;10.530;2023-07-29T07:08:35;6.65;;;2.13;;
10244;SDS011;5167;52.164;10.530;2023-07-29T07:11:00;2.67;;;2.47;;
10244;SDS011;5167;52.164;10.530;2023-07-29T07:13:26;2.55;;;1.90;;
10244;SDS011;5167;52.164;10.530;2023-07-29T07:15:53;6.32;;;2.17;;
10244;SDS011;5167;52.164;10.530;2023-07-29T07:18:20;3.28;;;2.25;;
10244;SDS011;5167;52.164;10.530;2023-07-29T07:20:48;6.25;;;2.35;;
10244;SDS011;5167;52.164;10.530;2023-07-29T07:23:14;2.38;;;1.75;;
10244;SDS011;5167;52.164;10.530;2023-07-29T07:25:40;1.60;;;1.38;;
10244;SDS011;5167;52.164;10.530;2023-07-29T07:28:07;1.60;;;1.40;;
10244;SDS011;5167;52.164;10.530;2023-07-29T07:30:33;2.35;;;1.00;;
10244;SDS011;5167;52.164;10.530;2023-07-29T07:32:58;0.80;;;0.80;;
10244;SDS011;5167;52.164;10.530;2023-07-29T07:35:24;1.95;;;1.35;;
10244;SDS011;5167;52.164;10.530;2023-07-29T07:37:49;1.60;;;1.20;;
10244;SDS011;5167;52.164;10.530;2023-07-29T07:40:15;1.20;;;1.10;;
10244;SDS011;5167;52.164;10.530;2023-07-29T07:42:41;0.80;;;0.80;;
10244;SDS011;5167;52.164;10.530;2023-07-29T07:45:06;1.42;;;0.80;;
10244;SDS011;5167;52.164;10.530;2023-07-29T07:47:32;0.75;;;0.75;;
10244;SDS011;5167;52.164;10.530;2023-07-29T07:49:57;0.77;;;0.77;;
10244;SDS011;5167;52.164;10.530;2023-07-29T07:52:23;1.48;;;0.77;;
10244;SDS011;5167;52.164;10.530;2023-07-29T07:54:52;0.50;;;0.50;;
10244;SDS011;5167;52.164;10.530;2023-07-29T07:57:19;0.80;;;0.80;;
10244;SDS011;5167;52.164;10.530;2023-07-29T07:59:46;0.68;;;0.68;;
10244;SDS011;5167;52.164;10.530;2023-07-29T08:02:11;2.17;;;0.73;;
10244;SDS011;5167;52.164;10.530;2023-07-29T08:04:37;0.70;;;0.70;;
10244;SDS011;5167;52.164;10.530;2023-07-29T08:07:02;0.98;;;0.90;;
10244;SDS011;5167;52.164;10.530;2023-07-29T08:09:28;0.80;;;0.80;;
10244;SDS011;5167;52.164;10.530;2023-07-29T08:11:53;2.30;;;0.70;;
10244;SDS011;5167;52.164;10.530;2023-07-29T08:14:19;0.70;;;0.70;;
10244;SDS011;5167;52.164;10.530;2023-07-29T08:16:44;0.60;;;0.60;;
10244;SDS011;5167;52.164;10.530;2023-07-29T08:19:10;0.93;;;0.85;;
10244;SDS011;5167;52.164;10.530;2023-07-29T08:21:35;0.50;;;0.50;;
10244;SDS011;5167;52.164;10.530;2023-07-29T08:24:01;0.80;;;0.80;;
10244;SDS011;5167;52.164;10.530;2023-07-29T08:26:27;0.63;;;0.63;;
10244;SDS011;5167;52.164;10.530;2023-07-29T08:28:52;1.63;;;0.73;;
10244;SDS011;5167;52.164;10.530;2023-07-29T08:31:18;2.90;;;1.05;;
10244;SDS011;5167;52.164;10.530;2023-07-29T08:33:43;1.15;;;0.90;;
10244;SDS011;5167;52.164;10.530;2023-07-29T08:36:09;1.45;;;0.88;;
10244;SDS011;5167;52.164;10.530;2023-07-29T08:38:34;1.95;;;0.95;;
10244;SDS011;5167;52.164;10.530;2023-07-29T08:41:05;1.23;;;0.93;;
10244;SDS011;5167;52.164;10.530;2023-07-29T08:43:34;1.55;;;0.60;;
10244;SDS011;5167;52.164;10.530;2023-07-29T08:46:03;3.15;;;0.88;;
10244;SDS011;5167;52.164;10.530;2023-07-29T08:48:41;2.88;;;0.88;;
10244;SDS011;5167;52.164;10.530;2023-07-29T08:51:10;0.85;;;0.80;;
10244;SDS011;5167;52.164;10.530;2023-07-29T08:53:37;1.15;;;1.00;;
10244;SDS011;5167;52.164;10.530;2023-07-29T08:56:03;2.17;;;0.80;;
10244;SDS011;5167;52.164;10.530;2023-07-29T08:58:30;1.20;;;1.00;;
10244;SDS011;5167;52.164;10.530;2023-07-29T09:00:56;2.97;;;0.90;;
10244;SDS011;5167;52.164;10.530;2023-07-29T09:03:22;1.60;;;1.08;;
10244;SDS011;5167;52.164;10.530;2023-07-29T09:05:47;1.13;;;1.02;;
10244;SDS011;5167;52.164;10.530;2023-07-29T09:08:13;1.38;;;1.00;;
10244;SDS011;5167;52.164;10.530;2023-07-29T09:10:39;4.75;;;0.95;;
10244;SDS011;5167;52.164;10.530;2023-07-29T09:13:06;1.33;;;1.10;;
10244;SDS011;5167;52.164;10.530;2023-07-29T09:15:33;1.30;;;1.20;;
10244;SDS011;5167;52.164;10.530;2023-07-29T09:18:08;1.58;;;1.10;;
10244;SDS011;5167;52.164;10.530;2023-07-29T09:20:35;1.38;;;1.30;;
10244;SDS011;5167;52.164;10.530;2023-07-29T09:23:01;1.58;;;1.40;;
10244;SDS011;5167;52.164;10.530;2023-07-29T09:25:27;1.80;;;1.52;;
10244;SDS011;5167;52.164;10.530;2023-07-29T09:28:00;1.98;;;1.65;;
10244;SDS011;5167;52.164;10.530;2023-07-29T09:30:26;3.08;;;1.52;;
10244;SDS011;5167;52.164;10.530;2023-07-29T09:32:56;1.83;;;1.40;;
10244;SDS011;5167;52.164;10.530;2023-07-29T09:35:22;1.98;;;1.77;;
10244;SDS011;5167;52.164;10.530;2023-07-29T09:37:49;1.50;;;1.40;;
10244;SDS011;5167;52.164;10.530;2023-07-29T09:40:16;1.88;;;1.50;;
10244;SDS011;5167;52.164;10.530;2023-07-29T09:43:01;2.00;;;1.50;;
10244;SDS011;5167;52.164;10.530;2023-07-29T09:45:27;2.05;;;1.95;;
10244;SDS011;5167;52.164;10.530;2023-07-29T09:47:53;3.90;;;1.63;;
10244;SDS011;5167;52.164;10.530;2023-07-29T09:50:23;2.17;;;1.98;;
10244;SDS011;5167;52.164;10.530;2023-07-29T09:52:48;1.55;;;1.40;;
10244;SDS011;5167;52.164;10.530;2023-07-29T09:55:19;1.73;;;1.63;;
10244;SDS011;5167;52.164;10.530;2023-07-29T09:57:56;1.95;;;1.85;;
10244;SDS011;5167;52.164;10.530;2023-07-29T10:00:23;1.67;;;1.58;;
10244;SDS011;5167;52.164;10.530;2023-07-29T10:02:48;1.90;;;1.80;;
10244;SDS011;5167;52.164;10.530;2023-07-29T10:05:14;1.48;;;1.35;;
10244;SDS011;5167;52.164;10.530;2023-07-29T10:07:40;1.83;;;1.73;;
10244;SDS011;5167;52.164;10.530;2023-07-29T10:10:06;2.05;;;1.92;;
10244;SDS011;5167;52.164;10.530;2023-07-29T10:12:33;2.08;;;1.88;;
10244;SDS011;5167;52.164;10.530;2023-07-29T10:15:03;1.92;;;1.67;;
10244;SDS011;5167;52.164;10.530;2023-07-29T10:17:30;2.10;;;1.90;;
10244;SDS011;5167;52.164;10.530;2023-07-29T10:19:59;2.53;;;2.42;;
10244;SDS011;5167;52.164;10.530;2023-07-29T10:22:27;1.88;;;1.77;;
10244;SDS011;5167;52.164;10.530;2023-07-29T10:24:59;1.67;;;1.58;;
10244;SDS011;5167;52.164;10.530;2023-07-29T10:27:31;2.75;;;1.98;;
10244;SDS011;5167;52.164;10.530;2023-07-29T10:30:07;1.75;;;1.65;;
10244;SDS011;5167;52.164;10.530;2023-07-29T10:32:33;1.83;;;1.73;;
10244;SDS011;5167;52.164;10.530;2023-07-29T10:34:59;4.55;;;2.00;;
10244;SDS011;5167;52.164;10.530;2023-07-29T10:37:25;6.03;;;1.80;;
10244;SDS011;5167;52.164;10.530;2023-07-29T10:39:52;2.22;;;2.03;;
10244;SDS011;5167;52.164;10.530;2023-07-29T10:42:19;2.33;;;2.13;;
10244;SDS011;5167;52.164;10.530;2023-07-29T10:44:52;2.75;;;2.55;;
10244;SDS011;5167;52.164;10.530;2023-07-29T10:47:21;3.60;;;2.20;;
10244;SDS011;5167;52.164;10.530;2023-07-29T10:49:50;2.13;;;2.03;;
10244;SDS011;5167;52.164;10.530;2023-07-29T10:52:30;2.22;;;2.08;;
10244;SDS011;5167;52.164;10.530;2023-07-29T10:54:58;2.30;;;2.10;;
10244;SDS011;5167;52.164;10.530;2023-07-29T10:57:31;2.55;;;2.35;;
10244;SDS011;5167;52.164;10.530;2023-07-29T11:00:02;2.72;;;2.53;;
10244;SDS011;5167;52.164;10.530;2023-07-29T11:02:34;2.90;;;2.70;;
10244;SDS011;5167;52.164;10.530;2023-07-29T11:05:05;2.90;;;2.70;;
10244;SDS011;5167;52.164;10.530;2023-07-29T11:07:32;2.72;;;2.50;;
10244;SDS011;5167;52.164;10.530;2023-07-29T11:10:12;4.72;;;3.13;;
10244;SDS011;5167;52.164;10.530;2023-07-29T11:15:13;3.10;;;2.90;;
10244;SDS011;5167;52.164;10.530;2023-07-29T11:20:06;4.53;;;3.35;;
10244;SDS011;5167;52.164;10.530;2023-07-29T11:22:33;3.78;;;3.45;;
10244;SDS011;5167;52.164;10.530;2023-07-29T11:24:59;3.45;;;3.13;;
10244;SDS011;5167;52.164;10.530;2023-07-29T11:27:25;3.95;;;3.60;;
10244;SDS011;5167;52.164;10.530;2023-07-29T11:29:56;4.28;;;3.88;;
10244;SDS011;5167;52.164;10.530;2023-07-29T11:32:23;3.80;;;3.40;;
10244;SDS011;5167;52.164;10.530;2023-07-29T11:34:49;5.53;;;3.25;;
10244;SDS011;5167;52.164;10.530;2023-07-29T11:37:14;5.13;;;3.88;;
10244;SDS011;5167;52.164;10.530;2023-07-29T11:39:40;5.18;;;3.90;;
10244;SDS011;5167;52.164;10.530;2023-07-29T11:42:06;4.40;;;4.00;;
10244;SDS011;5167;52.164;10.530;2023-07-29T11:44:36;6.32;;;4.80;;
10244;SDS011;5167;52.164;10.530;2023-07-29T11:47:01;4.90;;;3.95;;
10244;SDS011;5167;52.164;10.530;2023-07-29T11:49:27;5.20;;;4.20;;
10244;SDS011;5167;52.164;10.530;2023-07-29T11:51:52;4.50;;;3.75;;
10244;SDS011;5167;52.164;10.530;2023-07-29T11:54:18;4.32;;;3.70;;
10244;SDS011;5167;52.164;10.530;2023-07-29T11:56:46;6.60;;;4.47;;
10244;SDS011;5167;52.164;10.530;2023-07-29T11:59:12;5.05;;;4.15;;
10244;SDS011;5167;52.164;10.530;2023-07-29T12:01:39;4.80;;;4.15;;
10244;SDS011;5167;52.164;10.530;2023-07-29T12:04:05;6.53;;;4.20;;
10244;SDS011;5167;52.164;10.530;2023-07-29T12:06:30;5.20;;;3.72;;
10244;SDS011;5167;52.164;10.530;2023-07-29T12:08:56;4.13;;;3.25;;
10244;SDS011;5167;52.164;10.530;2023-07-29T12:11:22;3.55;;;3.17;;
10244;SDS011;5167;52.164;10.530;2023-07-29T12:13:48;3.80;;;3.50;;
10244;SDS011;5167;52.164;10.530;2023-07-29T12:16:16;6.03;;;3.88;;
10244;SDS011;5167;52.164;10.530;2023-07-29T12:18:45;4.63;;;3.33;;
10244;SDS011;5167;52.164;10.530;2023-07-29T12:21:10;4.47;;;3.85;;
10244;SDS011;5167;52.164;10.530;2023-07-29T12:23:38;3.70;;;3.40;;
10244;SDS011;5167;52.164;10.530;2023-07-29T12:26:04;3.80;;;3.42;;
10244;SDS011;5167;52.164;10.530;2023-07-29T12:28:29;5.53;;;4.78;;
10244;SDS011;5167;52.164;10.530;2023-07-29T12:30:55;3.55;;;3.25;;
10244;SDS011;5167;52.164;10.530;2023-07-29T12:33:32;3.42;;;3.13;;
10244;SDS011;5167;52.164;10.530;2023-07-29T12:35:58;4.88;;;3.88;;
10244;SDS011;5167;52.164;10.530;2023-07-29T12:38:27;5.60;;;5.10;;
10244;SDS011;5167;52.164;10.530;2023-07-29T12:40:56;7.70;;;5.47;;
10244;SDS011;5167;52.164;10.530;2023-07-29T12:43:22;5.72;;;4.55;;
10244;SDS011;5167;52.164;10.530;2023-07-29T12:45:51;6.25;;;5.15;;
10244;SDS011;5167;52.164;10.530;2023-07-29T12:48:17;5.35;;;4.75;;
10244;SDS011;5167;52.164;10.530;2023-07-29T12:50:42;6.00;;;5.45;;
10244;SDS011;5167;52.164;10.530;2023-07-29T12:53:08;5.40;;;4.90;;
10244;SDS011;5167;52.164;10.530;2023-07-29T12:55:37;5.93;;;4.70;;
10244;SDS011;5167;52.164;10.530;2023-07-29T12:58:03;4.93;;;4.30;;
10244;SDS011;5167;52.164;10.530;2023-07-29T13:00:29;4.05;;;3.67;;
10244;SDS011;5167;52.164;10.530;2023-07-29T13:02:55;3.90;;;3.50;;
10244;SDS011;5167;52.164;10.530;2023-07-29T13:05:20;4.40;;;4.00;;
10244;SDS011;5167;52.164;10.530;2023-07-29T13:07:46;4.13;;;3.72;;
10244;SDS011;5167;52.164;10.530;2023-07-29T13:10:11;3.97;;;3.50;;
10244;SDS011;5167;52.164;10.530;2023-07-29T13:12:37;3.13;;;2.85;;
10244;SDS011;5167;52.164;10.530;2023-07-29T13:15:03;3.30;;;2.70;;
10244;SDS011;5167;52.164;10.530;2023-07-29T13:17:29;1.60;;;1.50;;
10244;SDS011;5167;52.164;10.530;2023-07-29T13:19:55;2.42;;;1.80;;
10244;SDS011;5167;52.164;10.530;2023-07-29T13:22:20;2.80;;;2.00;;
10244;SDS011;5167;52.164;10.530;2023-07-29T13:24:46;5.85;;;2.28;;
10244;SDS011;5167;52.164;10.530;2023-07-29T13:27:12;7.32;;;4.72;;
10244;SDS011;5167;52.164;10.530;2023-07-29T13:29:37;1.95;;;1.75;;
10244;SDS011;5167;52.164;10.530;2023-07-29T13:32:04;1.63;;;1.20;;
10244;SDS011;5167;52.164;10.530;2023-07-29T13:34:30;2.35;;;1.25;;
10244;SDS011;5167;52.164;10.530;2023-07-29T13:36:55;1.92;;;1.25;;
10244;SDS011;5167;52.164;10.530;2023-07-29T13:39:21;1.55;;;1.45;;
10244;SDS011;5167;52.164;10.530;2023-07-29T13:41:46;0.90;;;0.90;;
10244;SDS011;5167;52.164;10.530;2023-07-29T13:44:12;1.30;;;1.15;;
10244;SDS011;5167;52.164;10.530;2023-07-29T13:46:37;1.67;;;1.10;;
10244;SDS011;5167;52.164;10.530;2023-07-29T13:49:03;2.75;;;1.30;;
10244;SDS011;5167;52.164;10.530;2023-07-29T13:51:28;1.63;;;1.02;;
10244;SDS011;5167;52.164;10.530;2023-07-29T13:53:54;2.15;;;1.25;;
10244;SDS011;5167;52.164;10.530;2023-07-29T13:56:21;1.02;;;0.90;;
10244;SDS011;5167;52.164;10.530;2023-07-29T13:58:46;1.23;;;1.13;;
10244;SDS011;5167;52.164;10.530;2023-07-29T14:01:12;1.23;;;1.02;;
10244;SDS011;5167;52.164;10.530;2023-07-29T14:03:37;1.58;;;0.90;;
10244;SDS011;5167;52.164;10.530;2023-07-29T14:06:03;3.33;;;1.10;;
10244;SDS011;5167;52.164;10.530;2023-07-29T14:08:28;1.70;;;1.05;;
10244;SDS011;5167;52.164;10.530;2023-07-29T14:10:54;3.17;;;0.98;;
10244;SDS011;5167;52.164;10.530;2023-07-29T14:13:19;2.42;;;0.95;;
10244;SDS011;5167;52.164;10.530;2023-07-29T14:15:45;1.20;;;0.70;;
10244;SDS011;5167;52.164;10.530;2023-07-29T14:18:10;1.05;;;1.00;;
10244;SDS011;5167;52.164;10.530;2023-07-29T14:20:36;1.15;;;1.05;;
10244;SDS011;5167;52.164;10.530;2023-07-29T14:23:01;2.30;;;1.30;;
10244;SDS011;5167;52.164;10.530;2023-07-29T14:25:27;1.35;;;0.90;;
10244;SDS011;5167;52.164;10.530;2023-07-29T14:27:53;0.88;;;0.68;;
10244;SDS011;5167;52.164;10.530;2023-07-29T14:30:18;1.33;;;1.10;;
10244;SDS011;5167;52.164;10.530;2023-07-29T14:32:44;1.02;;;0.90;;
10244;SDS011;5167;52.164;10.530;2023-07-29T14:35:09;2.38;;;1.70;;
10244;SDS011;5167;52.164;10.530;2023-07-29T14:37:35;0.93;;;0.93;;
10244;SDS011;5167;52.164;10.530;2023-07-29T14:40:00;0.80;;;0.80;;
10244;SDS011;5167;52.164;10.530;2023-07-29T14:42:26;1.30;;;0.60;;
10244;SDS011;5167;52.164;10.530;2023-07-29T14:44:52;0.98;;;0.95;;
10244;SDS011;5167;52.164;10.530;2023-07-29T14:47:18;3.00;;;1.23;;
10244;SDS011;5167;52.164;10.530;2023-07-29T14:49:44;1.35;;;1.10;;
10244;SDS011;5167;52.164;10.530;2023-07-29T14:52:10;1.10;;;1.00;;
10244;SDS011;5167;52.164;10.530;2023-07-29T14:54:36;1.77;;;0.82;;
10244;SDS011;5167;52.164;10.530;2023-07-29T14:57:02;1.20;;;1.08;;
10244;SDS011;5167;52.164;10.530;2023-07-29T14:59:27;1.85;;;1.27;;
10244;SDS011;5167;52.164;10.530;2023-07-29T15:01:53;0.60;;;0.60;;
10244;SDS011;5167;52.164;10.530;2023-07-29T15:04:18;0.90;;;0.80;;
10244;SDS011;5167;52.164;10.530;2023-07-29T15:06:44;0.88;;;0.77;;
10244;SDS011;5167;52.164;10.530;2023-07-29T15:09:10;3.28;;;1.48;;
10244;SDS011;5167;52.164;10.530;2023-07-29T15:11:36;0.80;;;0.73;;
10244;SDS011;5167;52.164;10.530;2023-07-29T15:14:01;4.28;;;1.55;;
10244;SDS011;5167;52.164;10.530;2023-07-29T15:16:28;1.23;;;1.13;;